Time;durP1;ratioP1;P1;durP2;ratioP2;P2;SDS_P1;SDS_P2;PMS_P1;PMS_P2;Temp;Humidity;BMP_temperature;BMP_pressure;BME280_temperature;BME280_humidity;BME280_pressure;Samples;Min_cycle;Max_cycle;Signal;HPM_P1;HPM_P2
2023/12/25 00:01:59;;;;;;;1.93;1.00;;;;;;;;;;2613582;54;20405;-77
2023/12/25 00:07:29;;;;;;;1.43;0.90;;;;;;;;;;2614223;54;20542;-77
2023/12/25 00:19:05;;;;;;;1.77;1.10;;;;;;;;;;2613752;54;20523;-77
2023/12/25 00:24:36;;;;;;;2.30;1.20;;;;;;;;;;2613861;54;20395;-77
2023/12/25 00:30:07;;;;;;;1.50;0.90;;;;;;;;;;2613519;46;20359;-77
2023/12/25 00:35:36;;;;;;;2.77;1.43;;;;;;;;;;2613753;54;20442;-77
2023/12/25 00:41:06;;;;;;;5.00;1.93;;;;;;;;;;2613019;54;20972;-78
2023/12/25 00:46:35;;;;;;;1.70;1.30;;;;;;;;;;2614466;54;20917;-77
2023/12/25 00:52:05;;;;;;;2.27;1.60;;;;;;;;;;2612671;54;20359;-77
2023/12/25 00:57:35;;;;;;;3.40;2.80;;;;;;;;;;2612704;46;20414;-77
2023/12/25 01:03:04;;;;;;;3.77;2.73;;;;;;;;;;2613812;54;20430;-76
2023/12/25 01:08:34;;;;;;;1.87;1.30;;;;;;;;;;2613318;54;20395;-76
2023/12/25 01:17:41;;;;;;;3.50;2.40;;;;;;;;;;2613528;54;20430;-78
2023/12/25 01:23:11;;;;;;;8.20;2.00;;;;;;;;;;2613999;54;20455;-77
2023/12/25 01:28:40;;;;;;;3.13;1.20;;;;;;;;;;2612768;54;20474;-76
2023/12/25 01:34:11;;;;;;;16.63;4.30;;;;;;;;;;2614038;39;20991;-76
2023/12/25 01:39:41;;;;;;;1.20;0.90;;;;;;;;;;2613287;54;20390;-77
2023/12/25 01:45:11;;;;;;;5.57;2.50;;;;;;;;;;2612748;39;20739;-76
2023/12/25 01:50:41;;;;;;;3.83;2.20;;;;;;;;;;2613114;54;20944;-76
2023/12/25 01:56:10;;;;;;;6.03;2.83;;;;;;;;;;2613346;54;20406;-76
2023/12/25 02:01:40;;;;;;;1.60;1.27;;;;;;;;;;2613710;54;20458;-77
2023/12/25 02:07:10;;;;;;;4.13;1.93;;;;;;;;;;2614743;54;20378;-76
2023/12/25 02:12:39;;;;;;;2.87;1.90;;;;;;;;;;2613800;54;20358;-76
2023/12/25 02:18:09;;;;;;;2.03;1.50;;;;;;;;;;2613969;54;20473;-76
2023/12/25 02:23:40;;;;;;;3.33;1.77;;;;;;;;;;2614097;54;20411;-76
2023/12/25 02:29:09;;;;;;;3.60;2.27;;;;;;;;;;2613866;54;20402;-76
2023/12/25 02:34:39;;;;;;;2.23;1.90;;;;;;;;;;2614058;54;20438;-76
2023/12/25 02:40:11;;;;;;;2.00;1.80;;;;;;;;;;2613792;39;20829;-76
2023/12/25 02:45:42;;;;;;;2.60;2.27;;;;;;;;;;2613745;54;20413;-77
2023/12/25 02:51:12;;;;;;;4.60;2.83;;;;;;;;;;2613581;54;20390;-77
2023/12/25 02:56:41;;;;;;;3.03;2.10;;;;;;;;;;2613748;54;20354;-76
2023/12/25 03:02:12;;;;;;;2.10;1.90;;;;;;;;;;2613107;54;20411;-77
2023/12/25 03:07:42;;;;;;;3.20;2.37;;;;;;;;;;2614285;54;20394;-77
2023/12/25 03:13:12;;;;;;;3.53;1.83;;;;;;;;;;2613455;54;20402;-77
2023/12/25 03:15:56;;;;;;;2.20;1.43;;;;;;;;;;2614023;54;20400;-77
2023/12/25 03:24:29;;;;;;;2.80;1.60;;;;;;;;;;2613920;54;20391;-76
2023/12/25 03:30:00;;;;;;;3.60;2.23;;;;;;;;;;2613442;54;20386;-78
2023/12/25 03:35:29;;;;;;;3.30;2.87;;;;;;;;;;2614261;54;20379;-76
2023/12/25 03:41:00;;;;;;;2.93;2.17;;;;;;;;;;2614615;39;20842;-76
2023/12/25 03:46:29;;;;;;;3.90;2.30;;;;;;;;;;2612582;54;20363;-76
2023/12/25 03:51:59;;;;;;;2.03;1.87;;;;;;;;;;2613105;54;20411;-76
2023/12/25 03:57:29;;;;;;;1.40;1.20;;;;;;;;;;2613357;54;20502;-75
2023/12/25 04:02:59;;;;;;;4.77;1.90;;;;;;;;;;2613325;54;20358;-75
2023/12/25 04:08:29;;;;;;;2.13;1.67;;;;;;;;;;2613443;54;20378;-75
2023/12/25 04:13:59;;;;;;;2.07;1.73;;;;;;;;;;2614302;54;20350;-75
2023/12/25 04:23:03;;;;;;;7.93;2.77;;;;;;;;;;2613062;54;20451;-74
2023/12/25 04:28:33;;;;;;;3.30;2.00;;;;;;;;;;2612940;54;20378;-74
2023/12/25 04:34:03;;;;;;;2.53;1.60;;;;;;;;;;2612861;54;20354;-75
2023/12/25 04:39:33;;;;;;;8.30;2.20;;;;;;;;;;2612367;54;20358;-75
2023/12/25 04:45:04;;;;;;;5.83;2.40;;;;;;;;;;2613389;54;20379;-75
2023/12/25 04:50:33;;;;;;;5.53;2.33;;;;;;;;;;2613279;46;20402;-74
2023/12/25 04:56:04;;;;;;;3.70;2.33;;;;;;;;;;2611585;54;20893;-75
2023/12/25 05:01:33;;;;;;;3.47;2.50;;;;;;;;;;2613606;54;20390;-77
2023/12/25 05:07:05;;;;;;;3.30;2.80;;;;;;;;;;2612065;54;20431;-76
2023/12/25 05:12:35;;;;;;;4.50;2.47;;;;;;;;;;2613976;39;20900;-77
2023/12/25 05:18:04;;;;;;;5.60;1.87;;;;;;;;;;2612348;54;20399;-77
2023/12/25 05:23:34;;;;;;;2.73;1.50;;;;;;;;;;2613722;54;20535;-78
2023/12/25 05:29:04;;;;;;;1.93;1.50;;;;;;;;;;2613040;54;20394;-78
2023/12/25 05:34:33;;;;;;;1.73;0.90;;;;;;;;;;2612969;54;20995;-76
2023/12/25 05:40:06;;;;;;;3.87;1.73;;;;;;;;;;2612892;54;20387;-76
2023/12/25 05:45:36;;;;;;;1.87;1.33;;;;;;;;;;2612404;54;20487;-76
2023/12/25 05:51:06;;;;;;;1.80;1.13;;;;;;;;;;2612739;54;20402;-77
2023/12/25 05:56:36;;;;;;;1.30;0.80;;;;;;;;;;2613084;54;20390;-77
2023/12/25 06:02:05;;;;;;;6.50;0.80;;;;;;;;;;2613858;39;20819;-76
2023/12/25 06:07:35;;;;;;;0.90;0.50;;;;;;;;;;2612872;39;20945;-77
2023/12/25 06:13:05;;;;;;;2.03;0.93;;;;;;;;;;2613040;54;20417;-77
2023/12/25 06:18:34;;;;;;;17.47;0.87;;;;;;;;;;2612475;46;20502;-76
2023/12/25 06:27:36;;;;;;;1.07;0.50;;;;;;;;;;2612590;54;20467;-77
2023/12/25 06:33:06;;;;;;;1.30;1.10;;;;;;;;;;2612359;54;20426;-76
2023/12/25 06:38:36;;;;;;;3.47;0.80;;;;;;;;;;2612808;54;20483;-77
2023/12/25 06:44:06;;;;;;;5.13;0.90;;;;;;;;;;2612354;54;20387;-75
2023/12/25 06:49:36;;;;;;;1.53;0.70;;;;;;;;;;2613413;39;20961;-75
2023/12/25 06:55:08;;;;;;;0.80;0.50;;;;;;;;;;2612521;54;20506;-77
2023/12/25 07:00:38;;;;;;;1.00;0.60;;;;;;;;;;2612831;54;20933;-76
2023/12/25 07:06:08;;;;;;;1.57;1.13;;;;;;;;;;2613185;54;21020;-77
2023/12/25 07:11:38;;;;;;;1.40;0.70;;;;;;;;;;2614147;54;20421;-78
2023/12/25 07:17:08;;;;;;;1.20;0.87;;;;;;;;;;2613397;39;20983;-78
2023/12/25 07:22:38;;;;;;;1.73;0.93;;;;;;;;;;2613471;54;20411;-76
2023/12/25 07:28:08;;;;;;;1.70;1.23;;;;;;;;;;2613290;54;20469;-76
2023/12/25 07:33:38;;;;;;;2.23;1.43;;;;;;;;;;2613746;54;20930;-75
2023/12/25 07:39:08;;;;;;;1.93;1.40;;;;;;;;;;2614174;54;20354;-77
2023/12/25 07:44:42;;;;;;;1.67;1.37;;;;;;;;;;2614176;54;20390;-75
2023/12/25 07:50:11;;;;;;;2.20;2.00;;;;;;;;;;2613834;54;20373;-74
2023/12/25 07:55:41;;;;;;;4.33;2.90;;;;;;;;;;2613805;54;20407;-75
2023/12/25 08:01:12;;;;;;;4.00;3.40;;;;;;;;;;2612248;39;20860;-74
2023/12/25 08:06:42;;;;;;;3.73;2.23;;;;;;;;;;2612135;54;20529;-75
2023/12/25 08:12:11;;;;;;;3.10;2.33;;;;;;;;;;2612170;39;20870;-74
2023/12/25 08:17:42;;;;;;;3.20;2.80;;;;;;;;;;2614254;54;20378;-74
2023/12/25 08:23:12;;;;;;;4.53;4.13;;;;;;;;;;2612452;54;20395;-74
2023/12/25 08:34:49;;;;;;;6.13;5.53;;;;;;;;;;2613409;39;20420;-74
2023/12/25 08:40:19;;;;;;;2.97;2.20;;;;;;;;;;2613965;54;20359;-74
2023/12/25 08:45:49;;;;;;;4.17;2.80;;;;;;;;;;2613550;54;20406;-75
2023/12/25 08:51:19;;;;;;;2.10;1.73;;;;;;;;;;2613550;54;20390;-74
2023/12/25 08:56:49;;;;;;;1.57;1.23;;;;;;;;;;2613313;54;20359;-74
2023/12/25 09:02:19;;;;;;;2.50;1.10;;;;;;;;;;2613808;54;20401;-73
2023/12/25 09:07:49;;;;;;;1.90;1.50;;;;;;;;;;2613428;39;21035;-76
2023/12/25 09:13:18;;;;;;;0.97;0.60;;;;;;;;;;2615332;54;20458;-74
2023/12/25 09:18:48;;;;;;;1.70;0.67;;;;;;;;;;2614094;54;20527;-75
2023/12/25 09:24:19;;;;;;;1.43;0.77;;;;;;;;;;2614103;54;21098;-75
2023/12/25 09:33:26;;;;;;;1.33;0.73;;;;;;;;;;2614547;54;20426;-74
2023/12/25 09:38:55;;;;;;;1.67;1.00;;;;;;;;;;2613961;54;20373;-75
2023/12/25 09:44:28;;;;;;;3.13;1.10;;;;;;;;;;2613845;54;20410;-74
2023/12/25 09:49:57;;;;;;;2.80;2.00;;;;;;;;;;2613989;54;20398;-75
2023/12/25 09:55:27;;;;;;;2.00;0.93;;;;;;;;;;2613627;54;20430;-75
2023/12/25 10:00:57;;;;;;;1.83;1.10;;;;;;;;;;2613633;46;20430;-74
2023/12/25 10:03:42;;;;;;;1.50;0.90;;;;;;;;;;2613420;46;20434;-74
2023/12/25 10:06:08;;;;;;;3.90;2.40;;;;;;;;;;2613075;47;20456;-74
2023/12/25 10:11:38;;;;;;;2.23;1.17;;;;;;;;;;2613318;54;20372;-74
2023/12/25 10:17:08;;;;;;;1.83;1.17;;;;;;;;;;2613122;54;20374;-75
2023/12/25 10:22:39;;;;;;;1.13;0.73;;;;;;;;;;2614258;39;20723;-75
2023/12/25 10:28:12;;;;;;;4.63;1.67;;;;;;;;;;2613536;54;20458;-74
2023/12/25 10:39:44;;;;;;;2.27;1.80;;;;;;;;;;2614027;54;20359;-75
2023/12/25 10:45:18;;;;;;;28.67;24.10;;;;;;;;;;2613685;54;20395;-74
2023/12/25 10:50:47;;;;;;;3.00;1.63;;;;;;;;;;2614114;54;20494;-75
2023/12/25 10:56:21;;;;;;;2.07;1.30;;;;;;;;;;2613295;54;20390;-74
2023/12/25 11:01:51;;;;;;;5.60;3.80;;;;;;;;;;2613611;54;20363;-76
2023/12/25 11:07:21;;;;;;;6.03;4.20;;;;;;;;;;2612995;39;20850;-75
2023/12/25 11:12:51;;;;;;;4.40;3.17;;;;;;;;;;2614623;39;20436;-74
2023/12/25 11:18:21;;;;;;;8.30;5.53;;;;;;;;;;2614442;54;20383;-75
2023/12/25 11:23:51;;;;;;;8.37;6.00;;;;;;;;;;2615337;31;20860;-74
2023/12/25 11:35:31;;;;;;;6.60;5.43;;;;;;;;;;2612563;54;20361;-75
2023/12/25 11:41:01;;;;;;;10.17;6.80;;;;;;;;;;2613171;54;20379;-76
2023/12/25 11:46:35;;;;;;;5.27;4.27;;;;;;;;;;2613609;54;20418;-76
2023/12/25 11:52:04;;;;;;;6.83;5.60;;;;;;;;;;2612400;54;20375;-75
2023/12/25 11:57:35;;;;;;;11.20;9.87;;;;;;;;;;2613667;54;20378;-75
2023/12/25 12:00:20;;;;;;;12.40;7.53;;;;;;;;;;2612590;39;20805;-76
2023/12/25 12:02:46;;;;;;;17.70;14.30;;;;;;;;;;2613038;39;21107;-75
2023/12/25 12:08:15;;;;;;;6.17;5.50;;;;;;;;;;2613599;54;20430;-75
2023/12/25 12:13:45;;;;;;;7.53;5.20;;;;;;;;;;2614102;54;20410;-75
2023/12/25 12:19:15;;;;;;;5.07;3.47;;;;;;;;;;2613697;54;20358;-75
2023/12/25 12:24:44;;;;;;;4.33;3.10;;;;;;;;;;2613978;46;20456;-74
2023/12/25 12:33:46;;;;;;;4.17;3.43;;;;;;;;;;2613455;54;20475;-75
2023/12/25 12:39:17;;;;;;;7.33;4.83;;;;;;;;;;2613166;54;20411;-74
2023/12/25 12:44:50;;;;;;;9.40;4.60;;;;;;;;;;2613718;54;20941;-76
2023/12/25 12:50:20;;;;;;;7.43;4.47;;;;;;;;;;2614141;54;20924;-74
2023/12/25 12:55:49;;;;;;;6.97;4.37;;;;;;;;;;2613645;54;20948;-74
2023/12/25 13:01:23;;;;;;;6.00;3.80;;;;;;;;;;2614795;54;20382;-73
2023/12/25 13:06:53;;;;;;;4.80;3.73;;;;;;;;;;2613444;54;20507;-74
2023/12/25 13:12:25;;;;;;;6.00;4.40;;;;;;;;;;2613756;54;20395;-75
2023/12/25 13:17:54;;;;;;;5.73;3.10;;;;;;;;;;2612638;54;20382;-76
2023/12/25 13:23:24;;;;;;;4.67;2.17;;;;;;;;;;2612030;54;20909;-76
2023/12/25 13:28:53;;;;;;;6.43;2.33;;;;;;;;;;2611393;54;20394;-75
2023/12/25 13:34:24;;;;;;;2.97;1.70;;;;;;;;;;2612236;54;20401;-76
2023/12/25 13:39:55;;;;;;;3.30;2.80;;;;;;;;;;2612770;54;20440;-76
2023/12/25 13:45:24;;;;;;;5.47;3.00;;;;;;;;;;2613201;31;20839;-74
2023/12/25 13:50:54;;;;;;;6.03;3.37;;;;;;;;;;2612251;39;20828;-75
2023/12/25 13:56:27;;;;;;;4.33;2.40;;;;;;;;;;2611915;54;20519;-75
2023/12/25 14:01:57;;;;;;;5.63;2.17;;;;;;;;;;2611947;54;20447;-74
2023/12/25 14:07:26;;;;;;;2.10;1.70;;;;;;;;;;2612595;54;20884;-74
2023/12/25 14:12:56;;;;;;;3.93;2.40;;;;;;;;;;2613349;54;20375;-74
2023/12/25 14:18:26;;;;;;;4.93;3.70;;;;;;;;;;2612296;54;20389;-74
2023/12/25 14:23:55;;;;;;;8.63;6.77;;;;;;;;;;2612603;54;20415;-74
2023/12/25 14:35:32;;;;;;;5.93;4.47;;;;;;;;;;2611016;54;20391;-75
2023/12/25 14:41:03;;;;;;;5.53;4.10;;;;;;;;;;2611739;54;20407;-75
2023/12/25 14:46:33;;;;;;;3.67;2.90;;;;;;;;;;2611926;54;20423;-74
2023/12/25 14:52:03;;;;;;;3.57;2.67;;;;;;;;;;2611918;54;20377;-74
2023/12/25 14:57:33;;;;;;;3.60;2.53;;;;;;;;;;2612727;54;20389;-74
2023/12/25 15:03:03;;;;;;;6.10;2.97;;;;;;;;;;2611998;54;20395;-75
2023/12/25 15:08:33;;;;;;;3.30;2.77;;;;;;;;;;2612322;54;20417;-74
2023/12/25 15:14:03;;;;;;;4.17;2.07;;;;;;;;;;2612553;54;20420;-74
2023/12/25 15:19:32;;;;;;;2.60;2.00;;;;;;;;;;2612760;54;20409;-75
2023/12/25 15:25:02;;;;;;;5.20;3.03;;;;;;;;;;2612611;54;20386;-74
2023/12/25 15:36:39;;;;;;;3.97;2.60;;;;;;;;;;2612323;54;20434;-76
2023/12/25 15:42:09;;;;;;;7.73;4.20;;;;;;;;;;2612210;54;20459;-75
2023/12/25 15:47:38;;;;;;;5.17;2.40;;;;;;;;;;2612944;54;20387;-75
2023/12/25 15:53:10;;;;;;;3.10;2.43;;;;;;;;;;2611531;54;20361;-75
2023/12/25 15:58:40;;;;;;;2.43;2.17;;;;;;;;;;2612790;54;20406;-75
2023/12/25 16:04:10;;;;;;;1.70;1.33;;;;;;;;;;2613414;54;20385;-75
2023/12/25 16:09:41;;;;;;;2.93;1.93;;;;;;;;;;2611846;54;20363;-74
2023/12/25 16:15:11;;;;;;;3.50;2.50;;;;;;;;;;2612702;54;20981;-74
2023/12/25 16:20:41;;;;;;;5.60;3.17;;;;;;;;;;2612400;54;20389;-75
2023/12/25 16:26:10;;;;;;;3.03;2.73;;;;;;;;;;2612561;46;20385;-76
2023/12/25 16:41:04;;;;;;;5.80;4.00;;;;;;;;;;2611070;54;20504;-75
2023/12/25 16:46:34;;;;;;;6.73;4.90;;;;;;;;;;2610724;54;20367;-74
2023/12/25 16:52:02;;;;;;;3.37;2.63;;;;;;;;;;2611754;54;20408;-75
2023/12/25 16:57:32;;;;;;;4.80;3.67;;;;;;;;;;2609629;54;21477;-77
2023/12/25 17:03:01;;;;;;;4.03;2.77;;;;;;;;;;2610893;54;20418;-76
2023/12/25 17:08:30;;;;;;;2.10;1.80;;;;;;;;;;2610382;54;20440;-76
2023/12/25 17:14:00;;;;;;;2.57;1.73;;;;;;;;;;2611602;54;20371;-75
2023/12/25 17:19:29;;;;;;;1.80;1.50;;;;;;;;;;2612908;54;20359;-76
2023/12/25 17:24:59;;;;;;;5.20;2.57;;;;;;;;;;2613546;54;20925;-76
2023/12/25 17:30:28;;;;;;;3.40;1.87;;;;;;;;;;2612164;54;20539;-78
2023/12/25 17:35:58;;;;;;;4.00;3.60;;;;;;;;;;2613086;54;20354;-77
2023/12/25 17:41:28;;;;;;;3.97;2.80;;;;;;;;;;2612312;54;20405;-74
2023/12/25 17:46:57;;;;;;;4.60;3.60;;;;;;;;;;2612056;54;20487;-78
2023/12/25 17:52:27;;;;;;;3.83;2.57;;;;;;;;;;2609899;46;20409;-75
2023/12/25 17:57:57;;;;;;;5.53;2.10;;;;;;;;;;2612371;39;20457;-76
2023/12/25 18:03:26;;;;;;;2.20;1.90;;;;;;;;;;2612172;54;20399;-79
2023/12/25 18:08:56;;;;;;;2.50;2.30;;;;;;;;;;2612728;54;20456;-76
2023/12/25 18:14:26;;;;;;;2.23;1.93;;;;;;;;;;2610472;39;20506;-76
2023/12/25 18:19:56;;;;;;;2.30;1.97;;;;;;;;;;2612287;54;20358;-78
2023/12/25 18:22:41;;;;;;;2.60;2.20;;;;;;;;;;2611336;48;20438;-78
2023/12/25 18:25:08;;;;;;;2.20;1.57;;;;;;;;;;2612873;54;20991;-75
2023/12/25 18:30:38;;;;;;;1.50;0.93;;;;;;;;;;2612358;54;20354;-74
2023/12/25 18:36:07;;;;;;;1.80;1.20;;;;;;;;;;2612425;54;20434;-75
2023/12/25 18:41:37;;;;;;;1.00;0.73;;;;;;;;;;2612115;54;20418;-79
2023/12/25 18:47:07;;;;;;;1.33;1.10;;;;;;;;;;2613038;54;20377;-74
2023/12/25 18:52:37;;;;;;;4.80;1.60;;;;;;;;;;2612015;39;20840;-73
2023/12/25 18:58:06;;;;;;;3.20;1.27;;;;;;;;;;2613011;39;20800;-73
2023/12/25 19:03:36;;;;;;;1.53;1.00;;;;;;;;;;2611464;39;20847;-74
2023/12/25 19:09:05;;;;;;;1.90;1.10;;;;;;;;;;2611221;54;20398;-74
2023/12/25 19:14:35;;;;;;;3.27;1.10;;;;;;;;;;2612533;54;20359;-74
2023/12/25 19:20:07;;;;;;;5.03;1.40;;;;;;;;;;2612052;54;20535;-73
2023/12/25 19:25:37;;;;;;;2.13;1.70;;;;;;;;;;2610189;54;20918;-74
2023/12/25 19:37:14;;;;;;;3.30;2.27;;;;;;;;;;2611138;54;20387;-74
2023/12/25 19:42:45;;;;;;;3.37;1.90;;;;;;;;;;2611552;54;20362;-75
2023/12/25 19:48:15;;;;;;;2.10;1.50;;;;;;;;;;2612207;39;20824;-73
2023/12/25 19:53:45;;;;;;;1.57;1.27;;;;;;;;;;2611340;54;20482;-74
2023/12/25 19:59:15;;;;;;;1.97;1.30;;;;;;;;;;2611409;54;20390;-74
2023/12/25 20:04:44;;;;;;;1.80;1.40;;;;;;;;;;2612311;54;20390;-74
2023/12/25 20:10:14;;;;;;;2.07;1.20;;;;;;;;;;2611846;54;20387;-74
2023/12/25 20:15:44;;;;;;;1.90;1.60;;;;;;;;;;2612188;54;20359;-74
2023/12/25 20:21:14;;;;;;;1.83;1.30;;;;;;;;;;2612412;54;20386;-75
2023/12/25 20:26:43;;;;;;;1.43;1.13;;;;;;;;;;2612239;54;20406;-75
2023/12/25 20:41:41;;;;;;;1.30;1.00;;;;;;;;;;2609718;54;20429;-74
2023/12/25 20:47:10;;;;;;;1.20;0.83;;;;;;;;;;2610534;54;20411;-76
2023/12/25 20:52:41;;;;;;;1.80;0.53;;;;;;;;;;2610271;54;20378;-75
2023/12/25 20:58:10;;;;;;;1.37;0.97;;;;;;;;;;2608514;31;20843;-75
2023/12/25 21:03:40;;;;;;;2.97;1.23;;;;;;;;;;2608209;54;20547;-75
2023/12/25 21:09:10;;;;;;;3.63;1.10;;;;;;;;;;2609105;39;20852;-74
2023/12/25 21:14:41;;;;;;;1.73;0.93;;;;;;;;;;2609687;54;20359;-75
2023/12/25 21:20:14;;;;;;;2.30;1.13;;;;;;;;;;2611764;39;20961;-75
2023/12/25 21:25:44;;;;;;;1.27;0.90;;;;;;;;;;2610200;54;20931;-75
2023/12/25 21:31:14;;;;;;;2.27;1.47;;;;;;;;;;2610684;54;20411;-75
2023/12/25 21:36:44;;;;;;;1.53;1.17;;;;;;;;;;2609693;54;20382;-76
2023/12/25 21:42:14;;;;;;;1.40;0.83;;;;;;;;;;2610591;54;20407;-74
2023/12/25 21:47:44;;;;;;;1.00;0.80;;;;;;;;;;2610225;54;20362;-75
2023/12/25 21:53:13;;;;;;;2.50;1.20;;;;;;;;;;2610072;54;20491;-75
2023/12/25 21:58:45;;;;;;;1.33;1.03;;;;;;;;;;2611546;54;20405;-75
2023/12/25 22:04:14;;;;;;;1.67;1.27;;;;;;;;;;2609756;54;20411;-76
2023/12/25 22:09:44;;;;;;;1.43;0.90;;;;;;;;;;2611800;54;20379;-75
2023/12/25 22:15:14;;;;;;;2.00;1.60;;;;;;;;;;2611336;54;20371;-75
2023/12/25 22:20:43;;;;;;;1.43;1.33;;;;;;;;;;2611508;54;20413;-74
2023/12/25 22:26:13;;;;;;;1.80;1.33;;;;;;;;;;2611157;39;20815;-74
2023/12/25 22:37:50;;;;;;;1.70;1.10;;;;;;;;;;2612840;54;20359;-74
2023/12/25 22:43:20;;;;;;;1.40;1.07;;;;;;;;;;2608735;54;20358;-75
2023/12/25 22:48:50;;;;;;;13.43;2.60;;;;;;;;;;2610826;54;20390;-76
2023/12/25 22:54:20;;;;;;;1.87;1.10;;;;;;;;;;2611165;39;20775;-76
2023/12/25 22:59:51;;;;;;;11.13;1.30;;;;;;;;;;2611355;54;20395;-76
2023/12/25 23:05:20;;;;;;;4.10;1.57;;;;;;;;;;2611414;54;20358;-74
2023/12/25 23:10:50;;;;;;;1.67;0.90;;;;;;;;;;2610186;54;20398;-74
2023/12/25 23:16:20;;;;;;;2.70;1.77;;;;;;;;;;2612413;54;20435;-74
2023/12/25 23:21:49;;;;;;;2.97;2.23;;;;;;;;;;2612774;54;20458;-75
2023/12/25 23:27:19;;;;;;;4.83;1.23;;;;;;;;;;2610734;54;20399;-75
2023/12/25 23:36:27;;;;;;;2.70;1.60;;;;;;;;;;2613050;39;20819;-75
2023/12/25 23:41:56;;;;;;;4.67;1.00;;;;;;;;;;2612840;54;20399;-75
2023/12/25 23:47:27;;;;;;;13.50;1.40;;;;;;;;;;2609970;54;20466;-75
2023/12/25 23:52:57;;;;;;;2.50;1.30;;;;;;;;;;2611193;54;20382;-75
2023/12/25 23:58:27;;;;;;;1.50;0.90;;;;;;;;;;2610072;54;21233;-75
